sensor_id;sensor_type;location;lat;lon;timestamp;pressure;altitude;pressure_sealevel;temperature;humidity
62544;BME280;48597;49.030;1.822;2022-09-12T00:01:17;100823.63;;;23.22;50.00
62544;BME280;48597;49.030;1.822;2022-09-12T00:03:44;100829.00;;;23.22;50.14
62544;BME280;48597;49.030;1.822;2022-09-12T00:06:14;100821.94;;;23.21;50.06
62544;BME280;48597;49.030;1.822;2022-09-12T00:08:40;100827.31;;;23.21;49.99
62544;BME280;48597;49.030;1.822;2022-09-12T00:11:07;100821.13;;;23.21;50.10
62544;BME280;48597;49.030;1.822;2022-09-12T00:13:34;100819.44;;;23.20;50.00
62544;BME280;48597;49.030;1.822;2022-09-12T00:16:00;100814.91;;;23.20;49.97
62544;BME280;48597;49.030;1.822;2022-09-12T00:18:26;100813.25;;;23.19;50.01
62544;BME280;48597;49.030;1.822;2022-09-12T00:20:51;100806.03;;;23.20;49.92
62544;BME280;48597;49.030;1.822;2022-09-12T00:23:16;100796.31;;;23.19;49.94
62544;BME280;48597;49.030;1.822;2022-09-12T00:25:46;100801.69;;;23.19;50.03
62544;BME280;48597;49.030;1.822;2022-09-12T00:28:14;100803.50;;;23.18;49.89
62544;BME280;48597;49.030;1.822;2022-09-12T00:30:44;100794.78;;;23.16;50.14
62544;BME280;48597;49.030;1.822;2022-09-12T00:33:11;100799.16;;;23.17;50.10
62544;BME280;48597;49.030;1.822;2022-09-12T00:35:46;100800.16;;;23.16;50.11
62544;BME280;48597;49.030;1.822;2022-09-12T00:38:12;100798.31;;;23.17;49.96
62544;BME280;48597;49.030;1.822;2022-09-12T00:40:38;100793.97;;;23.16;50.08
62544;BME280;48597;49.030;1.822;2022-09-12T00:43:04;100796.66;;;23.16;50.10
62544;BME280;48597;49.030;1.822;2022-09-12T00:45:30;100796.81;;;23.14;50.19
62544;BME280;48597;49.030;1.822;2022-09-12T00:47:59;100789.63;;;23.15;50.05
62544;BME280;48597;49.030;1.822;2022-09-12T00:50:26;100793.13;;;23.15;50.16
62544;BME280;48597;49.030;1.822;2022-09-12T00:52:56;100792.28;;;23.15;50.02
62544;BME280;48597;49.030;1.822;2022-09-12T00:55:26;100785.22;;;23.14;50.17
62544;BME280;48597;49.030;1.822;2022-09-12T00:58:08;100783.56;;;23.13;50.09
62544;BME280;48597;49.030;1.822;2022-09-12T01:00:34;100778.19;;;23.13;50.14
62544;BME280;48597;49.030;1.822;2022-09-12T01:03:03;100781.72;;;23.13;50.13
62544;BME280;48597;49.030;1.822;2022-09-12T01:05:33;100780.03;;;23.12;49.96
62544;BME280;48597;49.030;1.822;2022-09-12T01:08:01;100777.34;;;23.12;49.93
62544;BME280;48597;49.030;1.822;2022-09-12T01:10:26;100776.53;;;23.12;50.13
62544;BME280;48597;49.030;1.822;2022-09-12T01:12:52;100775.69;;;23.11;49.98
62544;BME280;48597;49.030;1.822;2022-09-12T01:15:18;100774.81;;;23.11;50.01
62544;BME280;48597;49.030;1.822;2022-09-12T01:17:49;100771.31;;;23.10;49.90
62544;BME280;48597;49.030;1.822;2022-09-12T01:29:00;100763.44;;;23.09;50.00
62544;BME280;48597;49.030;1.822;2022-09-12T01:31:42;100762.63;;;23.08;49.99
62544;BME280;48597;49.030;1.822;2022-09-12T01:36:59;100756.41;;;23.08;50.03
62544;BME280;48597;49.030;1.822;2022-09-12T01:42:38;100751.19;;;23.06;50.07
62544;BME280;48597;49.030;1.822;2022-09-12T01:45:15;100746.66;;;23.07;50.11
62544;BME280;48597;49.030;1.822;2022-09-12T01:50:47;100744.16;;;23.05;50.05
62544;BME280;48597;49.030;1.822;2022-09-12T01:53:22;100742.31;;;23.06;49.99
62544;BME280;48597;49.030;1.822;2022-09-12T01:56:04;100746.84;;;23.05;50.03
62544;BME280;48597;49.030;1.822;2022-09-12T01:58:53;100752.22;;;23.05;50.08
62544;BME280;48597;49.030;1.822;2022-09-12T02:01:35;100754.06;;;23.05;50.03
62544;BME280;48597;49.030;1.822;2022-09-12T02:04:27;100755.91;;;23.04;50.05
62544;BME280;48597;49.030;1.822;2022-09-12T02:06:58;100750.56;;;23.04;50.04
62544;BME280;48597;49.030;1.822;2022-09-12T02:09:29;100740.97;;;23.01;49.97
62544;BME280;48597;49.030;1.822;2022-09-12T02:11:59;100747.19;;;23.02;49.98
62544;BME280;48597;49.030;1.822;2022-09-12T02:14:28;100739.13;;;23.02;49.83
62544;BME280;48597;49.030;1.822;2022-09-12T02:17:02;100733.94;;;23.00;49.87
62544;BME280;48597;49.030;1.822;2022-09-12T02:19:35;100731.09;;;23.02;49.98
62544;BME280;48597;49.030;1.822;2022-09-12T02:22:03;100718.69;;;23.01;49.86
62544;BME280;48597;49.030;1.822;2022-09-12T02:24:32;100717.84;;;23.00;49.89
62544;BME280;48597;49.030;1.822;2022-09-12T02:27:05;100713.31;;;23.01;50.05
62544;BME280;48597;49.030;1.822;2022-09-12T02:29:34;100712.63;;;22.99;49.94
62544;BME280;48597;49.030;1.822;2022-09-12T02:32:04;100713.31;;;23.01;50.06
62544;BME280;48597;49.030;1.822;2022-09-12T02:34:40;100707.13;;;23.00;50.01
62544;BME280;48597;49.030;1.822;2022-09-12T02:39:57;100701.91;;;22.99;50.04
62544;BME280;48597;49.030;1.822;2022-09-12T02:42:24;100701.91;;;22.99;49.92
62544;BME280;48597;49.030;1.822;2022-09-12T02:44:51;100695.06;;;22.96;50.01
62544;BME280;48597;49.030;1.822;2022-09-12T02:47:36;100693.19;;;22.97;50.08
62544;BME280;48597;49.030;1.822;2022-09-12T02:50:03;100701.91;;;22.99;49.98
62544;BME280;48597;49.030;1.822;2022-09-12T02:52:30;100699.41;;;22.97;49.94
62544;BME280;48597;49.030;1.822;2022-09-12T02:54:56;100690.53;;;22.97;50.02
62544;BME280;48597;49.030;1.822;2022-09-12T02:57:22;100690.53;;;22.97;49.94
62544;BME280;48597;49.030;1.822;2022-09-12T02:59:49;100687.84;;;22.97;49.80
62544;BME280;48597;49.030;1.822;2022-09-12T03:02:44;100673.09;;;22.93;49.92
62544;BME280;48597;49.030;1.822;2022-09-12T03:05:34;100681.78;;;22.95;50.02
62544;BME280;48597;49.030;1.822;2022-09-12T03:08:23;100676.44;;;22.95;49.96
62544;BME280;48597;49.030;1.822;2022-09-12T03:13:33;100674.75;;;22.94;49.80
62544;BME280;48597;49.030;1.822;2022-09-12T03:16:16;100671.06;;;22.95;49.89
62544;BME280;48597;49.030;1.822;2022-09-12T03:24:34;100667.72;;;22.93;49.89
62544;BME280;48597;49.030;1.822;2022-09-12T03:29:34;100667.06;;;22.91;49.77
62544;BME280;48597;49.030;1.822;2022-09-12T03:32:01;100665.22;;;22.91;49.93
62544;BME280;48597;49.030;1.822;2022-09-12T03:34:27;100657.31;;;22.90;49.83
62544;BME280;48597;49.030;1.822;2022-09-12T03:36:53;100663.50;;;22.90;49.91
62544;BME280;48597;49.030;1.822;2022-09-12T03:39:19;100665.22;;;22.91;49.95
62544;BME280;48597;49.030;1.822;2022-09-12T03:41:45;100663.50;;;22.90;49.86
62544;BME280;48597;49.030;1.822;2022-09-12T03:44:10;100659.16;;;22.89;49.87
62544;BME280;48597;49.030;1.822;2022-09-12T03:46:35;100659.16;;;22.89;49.83
62544;BME280;48597;49.030;1.822;2022-09-12T03:49:01;100666.38;;;22.89;49.79
62544;BME280;48597;49.030;1.822;2022-09-12T03:51:26;100661.00;;;22.89;49.87
62544;BME280;48597;49.030;1.822;2022-09-12T03:53:51;100665.53;;;22.88;49.66
62544;BME280;48597;49.030;1.822;2022-09-12T03:56:17;100666.38;;;22.89;49.76
62544;BME280;48597;49.030;1.822;2022-09-12T03:58:43;100661.84;;;22.89;49.62
62544;BME280;48597;49.030;1.822;2022-09-12T04:01:11;100658.31;;;22.89;49.79
62544;BME280;48597;49.030;1.822;2022-09-12T04:03:38;100663.69;;;22.89;49.79
62544;BME280;48597;49.030;1.822;2022-09-12T04:06:04;100662.84;;;22.88;49.72
62544;BME280;48597;49.030;1.822;2022-09-12T04:08:30;100665.53;;;22.88;49.60
62544;BME280;48597;49.030;1.822;2022-09-12T04:11:01;100659.50;;;22.86;49.57
62544;BME280;48597;49.030;1.822;2022-09-12T04:13:27;100658.66;;;22.86;49.60
62544;BME280;48597;49.030;1.822;2022-09-12T04:15:59;100664.03;;;22.86;49.42
62544;BME280;48597;49.030;1.822;2022-09-12T04:18:25;100663.19;;;22.85;49.65
62544;BME280;48597;49.030;1.822;2022-09-12T04:20:51;100666.72;;;22.86;49.58
62544;BME280;48597;49.030;1.822;2022-09-12T04:23:16;100665.88;;;22.85;49.64
62544;BME280;48597;49.030;1.822;2022-09-12T04:25:41;100661.34;;;22.86;49.61
62544;BME280;48597;49.030;1.822;2022-09-12T04:28:07;100659.69;;;22.85;49.57
62544;BME280;48597;49.030;1.822;2022-09-12T04:30:33;100657.00;;;22.85;49.67
62544;BME280;48597;49.030;1.822;2022-09-12T04:32:58;100652.66;;;22.84;49.63
62544;BME280;48597;49.030;1.822;2022-09-12T04:35:24;100647.28;;;22.84;49.58
62544;BME280;48597;49.030;1.822;2022-09-12T04:37:50;100641.91;;;22.84;49.68
62544;BME280;48597;49.030;1.822;2022-09-12T04:40:15;100640.22;;;22.83;49.67
62544;BME280;48597;49.030;1.822;2022-09-12T04:42:40;100639.41;;;22.82;49.67
62544;BME280;48597;49.030;1.822;2022-09-12T04:45:06;100637.53;;;22.83;49.67
62544;BME280;48597;49.030;1.822;2022-09-12T04:47:32;100635.03;;;22.81;49.61
62544;BME280;48597;49.030;1.822;2022-09-12T04:49:57;100638.56;;;22.82;49.56
62544;BME280;48597;49.030;1.822;2022-09-12T04:52:22;100637.53;;;22.83;49.63
62544;BME280;48597;49.030;1.822;2022-09-12T04:54:48;100636.91;;;22.81;49.68
62544;BME280;48597;49.030;1.822;2022-09-12T04:57:13;100643.09;;;22.81;49.57
62544;BME280;48597;49.030;1.822;2022-09-12T04:59:38;100641.25;;;22.82;49.49
62544;BME280;48597;49.030;1.822;2022-09-12T05:02:04;100631.53;;;22.81;49.56
62544;BME280;48597;49.030;1.822;2022-09-12T05:04:29;100630.69;;;22.80;49.56
62544;BME280;48597;49.030;1.822;2022-09-12T05:06:55;100632.53;;;22.79;49.62
62544;BME280;48597;49.030;1.822;2022-09-12T05:09:21;100634.38;;;22.79;49.52
62544;BME280;48597;49.030;1.822;2022-09-12T05:11:46;100629.00;;;22.79;49.44
62544;BME280;48597;49.030;1.822;2022-09-12T05:14:12;100633.53;;;22.78;49.47
62544;BME280;48597;49.030;1.822;2022-09-12T05:16:37;100639.72;;;22.79;49.47
62544;BME280;48597;49.030;1.822;2022-09-12T05:19:03;100634.56;;;22.77;49.34
62544;BME280;48597;49.030;1.822;2022-09-12T05:21:29;100637.06;;;22.79;49.52
62544;BME280;48597;49.030;1.822;2022-09-12T05:23:56;100631.88;;;22.77;49.37
62544;BME280;48597;49.030;1.822;2022-09-12T05:26:23;100630.03;;;22.78;49.46
62544;BME280;48597;49.030;1.822;2022-09-12T05:28:49;100624.84;;;22.76;49.50
62544;BME280;48597;49.030;1.822;2022-09-12T05:31:16;100628.34;;;22.77;49.38
62544;BME280;48597;49.030;1.822;2022-09-12T05:33:43;100628.34;;;22.77;49.53
62544;BME280;48597;49.030;1.822;2022-09-12T05:36:14;100625.69;;;22.77;49.52
62544;BME280;48597;49.030;1.822;2022-09-12T05:38:40;100627.34;;;22.78;49.35
62544;BME280;48597;49.030;1.822;2022-09-12T05:41:16;100638.91;;;22.78;49.57
62544;BME280;48597;49.030;1.822;2022-09-12T05:43:42;100643.44;;;22.78;49.49
62544;BME280;48597;49.030;1.822;2022-09-12T05:46:13;100652.50;;;22.77;49.49
62544;BME280;48597;49.030;1.822;2022-09-12T05:48:40;100654.34;;;22.76;49.45
62544;BME280;48597;49.030;1.822;2022-09-12T05:51:08;100652.50;;;22.77;49.53
62544;BME280;48597;49.030;1.822;2022-09-12T05:53:35;100656.00;;;22.77;49.36
62544;BME280;48597;49.030;1.822;2022-09-12T05:56:28;100645.47;;;22.76;49.61
62544;BME280;48597;49.030;1.822;2022-09-12T05:59:05;100651.66;;;22.76;49.41
62544;BME280;48597;49.030;1.822;2022-09-12T06:01:32;100646.31;;;22.76;49.41
62544;BME280;48597;49.030;1.822;2022-09-12T06:04:00;100649.81;;;22.77;49.49
62544;BME280;48597;49.030;1.822;2022-09-12T06:06:27;100658.88;;;22.76;49.39
62544;BME280;48597;49.030;1.822;2022-09-12T06:09:00;100653.53;;;22.76;49.39
62544;BME280;48597;49.030;1.822;2022-09-12T06:11:28;100661.56;;;22.76;49.43
62544;BME280;48597;49.030;1.822;2022-09-12T06:13:55;100660.72;;;22.75;49.46
62544;BME280;48597;49.030;1.822;2022-09-12T06:16:23;100658.06;;;22.75;49.36
62544;BME280;48597;49.030;1.822;2022-09-12T06:18:54;100662.56;;;22.75;49.47
62544;BME280;48597;49.030;1.822;2022-09-12T06:21:21;100664.41;;;22.74;49.26
62544;BME280;48597;49.030;1.822;2022-09-12T06:23:47;100674.31;;;22.74;49.45
62544;BME280;48597;49.030;1.822;2022-09-12T06:26:14;100671.63;;;22.74;49.40
62544;BME280;48597;49.030;1.822;2022-09-12T06:28:41;100666.44;;;22.72;49.37
62544;BME280;48597;49.030;1.822;2022-09-12T06:31:11;100662.06;;;22.71;49.56
62544;BME280;48597;49.030;1.822;2022-09-12T06:33:42;100668.09;;;22.73;49.55
62544;BME280;48597;49.030;1.822;2022-09-12T06:36:11;100664.59;;;22.73;49.60
62544;BME280;48597;49.030;1.822;2022-09-12T06:38:36;100666.44;;;22.72;49.58
62544;BME280;48597;49.030;1.822;2022-09-12T06:41:04;100663.91;;;22.71;49.75
62544;BME280;48597;49.030;1.822;2022-09-12T06:43:30;100668.09;;;22.73;49.68
62544;BME280;48597;49.030;1.822;2022-09-12T06:45:56;100666.44;;;22.72;49.76
62544;BME280;48597;49.030;1.822;2022-09-12T06:48:21;100668.09;;;22.73;49.68
62544;BME280;48597;49.030;1.822;2022-09-12T06:50:57;100680.50;;;22.74;49.58
62544;BME280;48597;49.030;1.822;2022-09-12T06:53:23;100673.28;;;22.75;49.58
62544;BME280;48597;49.030;1.822;2022-09-12T06:58:21;100673.78;;;22.78;49.50
62544;BME280;48597;49.030;1.822;2022-09-12T07:00:46;100663.22;;;22.77;49.46
62544;BME280;48597;49.030;1.822;2022-09-12T07:03:12;100661.19;;;22.79;49.63
62544;BME280;48597;49.030;1.822;2022-09-12T07:05:37;100661.19;;;22.79;49.55
62544;BME280;48597;49.030;1.822;2022-09-12T07:08:02;100654.00;;;22.79;49.51
62544;BME280;48597;49.030;1.822;2022-09-12T07:10:28;100654.84;;;22.80;49.56
62544;BME280;48597;49.030;1.822;2022-09-12T07:12:55;100657.34;;;22.82;49.46
62544;BME280;48597;49.030;1.822;2022-09-12T07:15:20;100656.31;;;22.83;49.55
62544;BME280;48597;49.030;1.822;2022-09-12T07:17:45;100649.97;;;22.84;49.42
62544;BME280;48597;49.030;1.822;2022-09-12T07:20:10;100651.63;;;22.85;49.36
62544;BME280;48597;49.030;1.822;2022-09-12T07:22:36;100653.97;;;22.88;49.21
62544;BME280;48597;49.030;1.822;2022-09-12T07:25:01;100651.09;;;22.89;49.19
62544;BME280;48597;49.030;1.822;2022-09-12T07:27:27;100650.59;;;22.94;48.88
62544;BME280;48597;49.030;1.822;2022-09-12T07:29:52;100644.06;;;22.96;49.02
62544;BME280;48597;49.030;1.822;2022-09-12T07:32:17;100654.28;;;23.01;48.70
62544;BME280;48597;49.030;1.822;2022-09-12T07:34:44;100649.59;;;23.03;48.71
62544;BME280;48597;49.030;1.822;2022-09-12T07:37:09;100643.31;;;23.11;48.69
62544;BME280;48597;49.030;1.822;2022-09-12T07:39:34;100644.66;;;23.15;48.42
62544;BME280;48597;49.030;1.822;2022-09-12T07:42:00;100640.13;;;23.15;48.46
62544;BME280;48597;49.030;1.822;2022-09-12T07:44:25;100646.66;;;23.44;47.87
62544;BME280;48597;49.030;1.822;2022-09-12T07:46:51;100648.97;;;23.93;46.71
62544;BME280;48597;49.030;1.822;2022-09-12T07:49:16;100649.56;;;24.03;46.33
62544;BME280;48597;49.030;1.822;2022-09-12T07:51:42;100649.19;;;24.59;44.94
62544;BME280;48597;49.030;1.822;2022-09-12T07:54:08;100641.69;;;24.54;44.89
62544;BME280;48597;49.030;1.822;2022-09-12T07:56:33;100647.72;;;24.41;45.46
62544;BME280;48597;49.030;1.822;2022-09-12T07:58:58;100651.84;;;23.91;46.43
62544;BME280;48597;49.030;1.822;2022-09-12T08:01:25;100650.81;;;24.15;46.27
62544;BME280;48597;49.030;1.822;2022-09-12T08:03:55;100651.50;;;23.94;46.76
62544;BME280;48597;49.030;1.822;2022-09-12T08:06:21;100647.31;;;23.92;46.50
62544;BME280;48597;49.030;1.822;2022-09-12T08:08:52;100646.13;;;23.94;46.76
62544;BME280;48597;49.030;1.822;2022-09-12T08:11:19;100638.63;;;24.57;45.13
62544;BME280;48597;49.030;1.822;2022-09-12T08:13:46;100633.63;;;24.02;46.53
62544;BME280;48597;49.030;1.822;2022-09-12T08:16:14;100647.75;;;23.81;46.94
62544;BME280;48597;49.030;1.822;2022-09-12T08:18:40;100643.59;;;23.93;46.66
62544;BME280;48597;49.030;1.822;2022-09-12T08:21:09;100647.09;;;24.16;46.43
62544;BME280;48597;49.030;1.822;2022-09-12T08:23:36;100642.59;;;23.94;46.94
62544;BME280;48597;49.030;1.822;2022-09-12T08:26:03;100636.00;;;23.82;47.02
62544;BME280;48597;49.030;1.822;2022-09-12T08:28:30;100637.72;;;23.74;47.17
62544;BME280;48597;49.030;1.822;2022-09-12T08:31:07;100627.06;;;23.66;47.42
62544;BME280;48597;49.030;1.822;2022-09-12T08:33:33;100631.09;;;23.62;47.58
62544;BME280;48597;49.030;1.822;2022-09-12T08:36:06;100634.94;;;23.60;47.82
62544;BME280;48597;49.030;1.822;2022-09-12T08:38:33;100633.44;;;23.57;47.72
62544;BME280;48597;49.030;1.822;2022-09-12T08:43:50;100624.75;;;23.55;48.15
62544;BME280;48597;49.030;1.822;2022-09-12T08:46:25;100628.47;;;23.54;47.99
62544;BME280;48597;49.030;1.822;2022-09-12T08:48:54;100622.41;;;23.52;48.10
62544;BME280;48597;49.030;1.822;2022-09-12T08:51:21;100617.03;;;23.52;48.30
62544;BME280;48597;49.030;1.822;2022-09-12T08:53:49;100615.19;;;23.52;48.17
62544;BME280;48597;49.030;1.822;2022-09-12T08:56:18;100615.03;;;23.54;48.09
62544;BME280;48597;49.030;1.822;2022-09-12T08:58:44;100619.38;;;23.55;48.14
62544;BME280;48597;49.030;1.822;2022-09-12T09:17:31;100616.97;;;23.60;48.24
62544;BME280;48597;49.030;1.822;2022-09-12T09:20:06;100620.69;;;23.59;48.24
62544;BME280;48597;49.030;1.822;2022-09-12T09:22:47;100617.34;;;23.57;48.34
62544;BME280;48597;49.030;1.822;2022-09-12T09:25:20;100620.69;;;23.59;48.46
62544;BME280;48597;49.030;1.822;2022-09-12T09:28:21;100616.97;;;23.60;48.40
62544;BME280;48597;49.030;1.822;2022-09-12T09:30:41;100608.91;;;23.60;48.36
62544;BME280;48597;49.030;1.822;2022-09-12T09:33:13;100607.91;;;23.61;48.13
62544;BME280;48597;49.030;1.822;2022-09-12T09:35:44;100601.69;;;23.61;48.47
62544;BME280;48597;49.030;1.822;2022-09-12T09:41:29;100595.97;;;23.64;48.25
62544;BME280;48597;49.030;1.822;2022-09-12T09:43:57;100604.84;;;23.64;48.39
62544;BME280;48597;49.030;1.822;2022-09-12T09:46:24;100601.34;;;23.64;48.30
62544;BME280;48597;49.030;1.822;2022-09-12T09:48:50;100601.34;;;23.64;48.30
62544;BME280;48597;49.030;1.822;2022-09-12T09:51:22;100601.34;;;23.64;48.28
62544;BME280;48597;49.030;1.822;2022-09-12T09:53:52;100591.63;;;23.63;48.43
62544;BME280;48597;49.030;1.822;2022-09-12T09:58:50;100585.22;;;23.64;48.45
62544;BME280;48597;49.030;1.822;2022-09-12T10:01:16;100593.09;;;23.65;48.65
62544;BME280;48597;49.030;1.822;2022-09-12T10:03:52;100585.94;;;23.66;48.49
62544;BME280;48597;49.030;1.822;2022-09-12T10:08:43;100576.97;;;23.65;48.62
62544;BME280;48597;49.030;1.822;2022-09-12T10:18:47;100579.53;;;23.67;48.69
62544;BME280;48597;49.030;1.822;2022-09-12T10:21:16;100579.53;;;23.67;48.68
62544;BME280;48597;49.030;1.822;2022-09-12T10:23:43;100578.00;;;23.64;48.62
62544;BME280;48597;49.030;1.822;2022-09-12T10:26:12;100574.97;;;23.67;48.47
62544;BME280;48597;49.030;1.822;2022-09-12T10:28:48;100571.28;;;23.68;48.64
62544;BME280;48597;49.030;1.822;2022-09-12T10:31:22;100565.06;;;23.68;48.71
62544;BME280;48597;49.030;1.822;2022-09-12T10:33:54;100565.91;;;23.68;48.53
62544;BME280;48597;49.030;1.822;2022-09-12T10:36:20;100569.25;;;23.70;48.82
62544;BME280;48597;49.030;1.822;2022-09-12T10:38:53;100565.53;;;23.71;48.67
62544;BME280;48597;49.030;1.822;2022-09-12T10:41:19;100568.22;;;23.71;48.53
62544;BME280;48597;49.030;1.822;2022-09-12T10:43:46;100568.03;;;23.73;48.75
62544;BME280;48597;49.030;1.822;2022-09-12T10:48:45;100574.25;;;23.73;48.99
62544;BME280;48597;49.030;1.822;2022-09-12T10:51:26;100566.84;;;23.75;48.60
62544;BME280;48597;49.030;1.822;2022-09-12T10:53:54;100564.16;;;23.75;48.57
62544;BME280;48597;49.030;1.822;2022-09-12T10:56:24;100563.97;;;23.77;48.54
62544;BME280;48597;49.030;1.822;2022-09-12T10:59:08;100561.28;;;23.77;48.74
62544;BME280;48597;49.030;1.822;2022-09-12T11:01:41;100561.13;;;23.79;48.85
62544;BME280;48597;49.030;1.822;2022-09-12T11:18:38;100527.28;;;23.84;48.64
62544;BME280;48597;49.030;1.822;2022-09-12T11:29:29;100514.53;;;23.86;48.51
62544;BME280;48597;49.030;1.822;2022-09-12T11:32:10;100515.34;;;23.87;48.51
62544;BME280;48597;49.030;1.822;2022-09-12T11:40:32;100508.94;;;23.88;48.28
62544;BME280;48597;49.030;1.822;2022-09-12T11:43:04;100504.41;;;23.88;48.33
62544;BME280;48597;49.030;1.822;2022-09-12T11:45:39;100498.00;;;23.89;48.46
62544;BME280;48597;49.030;1.822;2022-09-12T11:48:11;100494.31;;;23.90;48.57
62544;BME280;48597;49.030;1.822;2022-09-12T11:50:39;100491.44;;;23.92;48.54
62544;BME280;48597;49.030;1.822;2022-09-12T11:53:20;100488.59;;;23.93;48.23
62544;BME280;48597;49.030;1.822;2022-09-12T11:56:12;100492.94;;;23.94;48.33
62544;BME280;48597;49.030;1.822;2022-09-12T11:58:40;100497.28;;;23.95;48.13
62544;BME280;48597;49.030;1.822;2022-09-12T12:01:30;100494.59;;;23.95;48.57
62544;BME280;48597;49.030;1.822;2022-09-12T12:04:05;100496.25;;;23.96;48.23
62544;BME280;48597;49.030;1.822;2022-09-12T12:07:09;100499.78;;;23.97;48.28
62544;BME280;48597;49.030;1.822;2022-09-12T12:09:33;100497.09;;;23.97;48.54
62544;BME280;48597;49.030;1.822;2022-09-12T12:12:03;100497.94;;;23.97;48.30
62544;BME280;48597;49.030;1.822;2022-09-12T12:14:42;100489.03;;;23.97;48.06
62544;BME280;48597;49.030;1.822;2022-09-12T12:17:18;100493.41;;;23.98;48.29
62544;BME280;48597;49.030;1.822;2022-09-12T12:19:45;100496.91;;;23.98;48.13
62544;BME280;48597;49.030;1.822;2022-09-12T12:22:19;100501.25;;;23.99;48.20
62544;BME280;48597;49.030;1.822;2022-09-12T12:25:01;100501.06;;;24.01;48.19
62544;BME280;48597;49.030;1.822;2022-09-12T12:35:42;100503.38;;;24.04;48.05
62544;BME280;48597;49.030;1.822;2022-09-12T12:38:41;100496.16;;;24.05;47.97
62544;BME280;48597;49.030;1.822;2022-09-12T12:43:44;100479.88;;;24.06;48.29
62544;BME280;48597;49.030;1.822;2022-09-12T12:46:12;100469.09;;;24.06;48.36
62544;BME280;48597;49.030;1.822;2022-09-12T12:51:47;100479.50;;;24.09;48.01
62544;BME280;48597;49.030;1.822;2022-09-12T12:54:33;100466.69;;;24.11;48.09
62544;BME280;48597;49.030;1.822;2022-09-12T12:59:45;100456.59;;;24.13;48.31
62544;BME280;48597;49.030;1.822;2022-09-12T13:02:23;100444.81;;;24.14;47.87
62544;BME280;48597;49.030;1.822;2022-09-12T13:04:50;100449.16;;;24.15;47.96
62544;BME280;48597;49.030;1.822;2022-09-12T13:07:24;100439.25;;;24.16;47.77
62544;BME280;48597;49.030;1.822;2022-09-12T13:09:50;100435.53;;;24.17;48.11
62544;BME280;48597;49.030;1.822;2022-09-12T13:12:26;100431.00;;;24.17;48.15
62544;BME280;48597;49.030;1.822;2022-09-12T13:14:55;100436.38;;;24.17;47.88
62544;BME280;48597;49.030;1.822;2022-09-12T13:17:32;100431.84;;;24.18;48.11
62544;BME280;48597;49.030;1.822;2022-09-12T13:22:48;100428.13;;;24.19;48.09
62544;BME280;48597;49.030;1.822;2022-09-12T13:30:26;100421.06;;;24.18;48.14
62544;BME280;48597;49.030;1.822;2022-09-12T13:32:52;100418.19;;;24.19;47.71
62544;BME280;48597;49.030;1.822;2022-09-12T13:38:10;100420.72;;;24.21;47.83
62544;BME280;48597;49.030;1.822;2022-09-12T13:40:46;100414.47;;;24.20;47.86
62544;BME280;48597;49.030;1.822;2022-09-12T13:43:27;100412.44;;;24.22;47.85
62544;BME280;48597;49.030;1.822;2022-09-12T13:45:54;100403.34;;;24.23;47.72
62544;BME280;48597;49.030;1.822;2022-09-12T13:48:23;100407.69;;;24.24;47.67
62544;BME280;48597;49.030;1.822;2022-09-12T13:50:56;100402.97;;;24.27;47.74
62544;BME280;48597;49.030;1.822;2022-09-12T13:53:29;100399.44;;;24.26;47.88
62544;BME280;48597;49.030;1.822;2022-09-12T13:55:59;100404.63;;;24.28;47.89
62544;BME280;48597;49.030;1.822;2022-09-12T13:58:27;100410.00;;;24.28;47.94
62544;BME280;48597;49.030;1.822;2022-09-12T14:01:10;100402.78;;;24.28;47.62
62544;BME280;48597;49.030;1.822;2022-09-12T14:03:51;100395.53;;;24.29;47.94
62544;BME280;48597;49.030;1.822;2022-09-12T14:09:31;100398.06;;;24.30;48.00
62544;BME280;48597;49.030;1.822;2022-09-12T14:11:58;100392.66;;;24.30;47.80
62544;BME280;48597;49.030;1.822;2022-09-12T14:16:57;100375.50;;;24.31;47.66
62544;BME280;48597;49.030;1.822;2022-09-12T14:19:23;100372.81;;;24.31;47.74
62544;BME280;48597;49.030;1.822;2022-09-12T14:21:52;100373.66;;;24.32;47.74
62544;BME280;48597;49.030;1.822;2022-09-12T14:24:18;100362.88;;;24.32;47.84
62544;BME280;48597;49.030;1.822;2022-09-12T14:26:50;100359.19;;;24.33;47.90
62544;BME280;48597;49.030;1.822;2022-09-12T14:29:17;100358.34;;;24.32;47.45
62544;BME280;48597;49.030;1.822;2022-09-12T14:31:43;100353.81;;;24.33;47.76
62544;BME280;48597;49.030;1.822;2022-09-12T14:34:16;100349.44;;;24.32;47.67
62544;BME280;48597;49.030;1.822;2022-09-12T14:36:50;100338.69;;;24.32;47.67
62544;BME280;48597;49.030;1.822;2022-09-12T14:41:46;100337.69;;;24.33;47.70
62544;BME280;48597;49.030;1.822;2022-09-12T14:44:25;100338.69;;;24.32;47.97
62544;BME280;48597;49.030;1.822;2022-09-12T14:46:52;100341.38;;;24.32;48.06
62544;BME280;48597;49.030;1.822;2022-09-12T14:49:36;100335.00;;;24.33;47.90
62544;BME280;48597;49.030;1.822;2022-09-12T14:52:19;100335.81;;;24.33;47.63
62544;BME280;48597;49.030;1.822;2022-09-12T14:57:42;100326.94;;;24.33;47.84
62544;BME280;48597;49.030;1.822;2022-09-12T15:02:41;100329.41;;;24.34;47.68
62544;BME280;48597;49.030;1.822;2022-09-12T15:13:01;100313.28;;;24.34;47.62
62544;BME280;48597;49.030;1.822;2022-09-12T15:15:27;100317.00;;;24.33;48.04
62544;BME280;48597;49.030;1.822;2022-09-12T15:17:52;100316.16;;;24.33;48.12
62544;BME280;48597;49.030;1.822;2022-09-12T15:20:18;100309.75;;;24.34;47.99
62544;BME280;48597;49.030;1.822;2022-09-12T15:22:43;100304.19;;;24.35;47.67
62544;BME280;48597;49.030;1.822;2022-09-12T15:25:09;100309.75;;;24.34;47.84
62544;BME280;48597;49.030;1.822;2022-09-12T15:27:36;100307.06;;;24.34;47.90
62544;BME280;48597;49.030;1.822;2022-09-12T15:30:06;100300.66;;;24.35;47.77
62544;BME280;48597;49.030;1.822;2022-09-12T15:32:32;100299.84;;;24.34;47.73